PRINT OUT SECTION, show ยป

METAR EPBY 170700Z 04003KT 340V100 CAVOK 24/18 Q1011=

METAR EPGD 170700Z 32005KT CAVOK 21/18 Q1012 =

METAR EPKK 170700Z 20005KT 9999 FEW043 22/19 Q1012 =

METAR EPKT 170700Z 30003KT 230V340 CAVOK 23/18 Q1012 =

METAR EPLB 170700Z VRB02KT 9999 FEW007 SCT038 22/21 Q1011 =

METAR EPLL 170700Z VRB01KT CAVOK 24/19 Q1011 =

METAR EPML 170700Z AUTO VRB02KT 9999 NCD 23/19 Q1011=

METAR EPMO 170700Z 08004KT 050V130 9999 FEW034 23/19 Q1011 =

METAR EPPO 170700Z 10004KT 030V120 CAVOK 26/18 Q1012 =

METAR EPRA 170700Z 03004KT 9999 FEW020 23/23 Q1011=

METAR EPRZ 170700Z 27008KT 9999 FEW007 SCT036 21/19 Q1011 =

METAR EPSC 170700Z VRB02KT CAVOK 24/18 Q1012 =

METAR EPSY 170700Z 16004KT 040V210 CAVOK 24/18 Q1012=

METAR EPWA 170700Z 12003KT 040V180 9999 SCT046 23/19 Q1011 NOSIG=

METAR EPWR 170700Z 31004KT 270V340 CAVOK 23/17 Q1012 =

METAR EPZG 170700Z 03003KT 340V070 CAVOK 25/17 Q1012 =